Time;durP1;ratioP1;P1;durP2;ratioP2;P2;SDS_P1;SDS_P2;PMS_P1;PMS_P2;Temp;Humidity;BMP_temperature;BMP_pressure;BME280_temperature;BME280_humidity;BME280_pressure;Samples;Min_cycle;Max_cycle;Signal;HPM_P1;HPM_P2
2021/12/29 00:01:59;;;;;;;13.17;7.30;;;;;;;3.55;32.30;98865.95;1747237;81;21512;-64
2021/12/29 00:04:27;;;;;;;10.37;7.40;;;;;;;3.58;32.33;98861.73;1737710;81;20959;-67
2021/12/29 00:06:58;;;;;;;13.53;8.10;;;;;;;3.58;32.27;98847.27;1788621;79;20875;-66
2021/12/29 00:09:24;;;;;;;11.95;8.03;;;;;;;3.52;32.35;98850.45;1795943;79;39089;-67
2021/12/29 00:11:51;;;;;;;12.67;8.93;;;;;;;3.51;32.38;98854.06;1800841;79;21493;-68
2021/12/29 00:14:18;;;;;;;12.57;8.33;;;;;;;3.51;32.38;98850.13;1789125;79;21523;-68
2021/12/29 00:16:44;;;;;;;14.23;8.37;;;;;;;3.50;32.42;98846.30;1784235;79;20935;-68
2021/12/29 00:19:11;;;;;;;15.97;8.43;;;;;;;3.52;32.40;98833.86;1799178;79;20944;-68
2021/12/29 00:21:37;;;;;;;13.27;7.67;;;;;;;3.48;32.45;98824.58;1783257;79;21841;-68
2021/12/29 00:24:05;;;;;;;12.60;8.67;;;;;;;3.32;32.58;98825.16;1799815;79;20860;-65
2021/12/29 00:26:32;;;;;;;12.60;8.77;;;;;;;3.15;32.92;98816.68;1786592;79;20923;-65
2021/12/29 00:28:59;;;;;;;12.27;9.00;;;;;;;3.14;33.02;98818.95;1793345;79;21509;-69
2021/12/29 00:31:31;;;;;;;16.97;8.03;;;;;;;3.09;33.09;98818.06;1751198;81;20953;-68
2021/12/29 00:34:16;;;;;;;9.97;7.60;;;;;;;3.03;33.24;98825.66;1751461;81;21159;-66
2021/12/29 00:37:01;;;;;;;12.50;8.10;;;;;;;2.87;33.45;98825.38;1723325;82;20971;-68
2021/12/29 00:39:46;;;;;;;14.05;7.90;;;;;;;2.73;33.69;98833.20;1766484;80;21032;-65
2021/12/29 00:42:32;;;;;;;10.75;7.40;;;;;;;2.73;33.71;98822.69;1810171;78;20920;-65
2021/12/29 00:45:17;;;;;;;15.20;7.42;;;;;;;2.71;33.70;98827.73;1806195;78;20975;-66
2021/12/29 00:47:44;;;;;;;19.20;6.93;;;;;;;2.72;33.70;98832.84;1792071;79;21244;-65
2021/12/29 00:50:14;;;;;;;13.37;7.27;;;;;;;2.73;33.67;98838.45;1799280;79;20957;-67
2021/12/29 00:52:41;;;;;;;11.80;7.50;;;;;;;2.77;33.61;98831.11;1802826;78;21472;-68
2021/12/29 00:55:09;;;;;;;14.97;7.70;;;;;;;2.88;33.48;98829.67;1806607;78;21861;-65
2021/12/29 00:57:35;;;;;;;13.00;8.07;;;;;;;2.96;33.35;98828.50;1803493;79;20902;-68
2021/12/29 01:00:03;;;;;;;14.13;7.50;;;;;;;3.02;33.25;98824.02;1807762;78;21130;-66
2021/12/29 01:02:29;;;;;;;11.63;7.07;;;;;;;3.00;33.15;98823.30;1758583;80;20939;-67
2021/12/29 01:04:56;;;;;;;15.40;7.60;;;;;;;2.94;33.13;98819.94;1768494;80;20899;-65
2021/12/29 01:07:23;;;;;;;12.57;7.30;;;;;;;2.90;33.14;98816.74;1805304;78;20914;-69
2021/12/29 01:09:50;;;;;;;17.27;8.50;;;;;;;2.80;33.26;98813.77;1804908;78;20969;-67
2021/12/29 01:12:16;;;;;;;15.47;7.37;;;;;;;2.73;33.34;98817.91;1799275;78;22336;-67
2021/12/29 01:14:51;;;;;;;14.80;8.33;;;;;;;2.77;33.31;98822.75;1795591;79;20859;-68
2021/12/29 01:17:11;;;;;;;17.93;7.20;;;;;;;2.73;33.33;98825.31;1800375;79;20911;-67
2021/12/29 01:19:39;;;;;;;10.93;7.23;;;;;;;2.65;33.44;98817.29;1757332;80;21025;-68
2021/12/29 01:22:05;;;;;;;9.90;7.10;;;;;;;2.53;33.63;98813.61;1754830;80;20935;-65
2021/12/29 01:24:32;;;;;;;13.60;7.80;;;;;;;2.59;33.54;98813.88;1766816;80;21524;-66
2021/12/29 01:27:00;;;;;;;14.07;8.07;;;;;;;2.55;33.60;98815.61;1765579;80;21057;-68
2021/12/29 01:29:26;;;;;;;13.60;7.57;;;;;;;2.57;33.59;98809.26;1800479;78;20886;-66
2021/12/29 01:31:53;;;;;;;12.60;7.80;;;;;;;2.57;33.61;98805.32;1795874;78;20855;-69
2021/12/29 01:34:19;;;;;;;11.93;7.77;;;;;;;2.63;33.56;98806.58;1776341;80;20891;-65
2021/12/29 01:36:46;;;;;;;12.30;7.77;;;;;;;2.61;33.59;98801.95;1766895;80;21098;-68
2021/12/29 01:39:15;;;;;;;12.53;7.73;;;;;;;2.62;33.60;98795.23;1760443;80;21778;-69
2021/12/29 01:41:43;;;;;;;13.40;7.97;;;;;;;2.64;33.59;98791.14;1745788;81;21003;-68
2021/12/29 01:44:11;;;;;;;11.23;7.20;;;;;;;2.63;33.63;98798.70;1722659;82;20995;-69
2021/12/29 01:46:38;;;;;;;10.03;7.60;;;;;;;2.62;33.70;98792.61;1756295;81;20888;-67
2021/12/29 01:49:04;;;;;;;12.33;7.53;;;;;;;2.62;33.75;98783.41;1730590;80;21767;-68
2021/12/29 01:51:31;;;;;;;13.77;7.53;;;;;;;2.59;33.87;98785.47;1758089;81;20962;-65
2021/12/29 01:56:42;;;;;;;15.60;7.97;;;;;;;2.58;33.95;98778.58;1756234;81;20950;-68
2021/12/29 01:59:09;;;;;;;12.93;7.07;;;;;;;2.52;34.04;98777.80;1729478;81;20966;-68
2021/12/29 02:01:35;;;;;;;14.00;8.67;;;;;;;2.56;34.04;98778.70;1755471;81;21135;-65
2021/12/29 02:04:01;;;;;;;11.43;7.50;;;;;;;2.57;34.09;98775.59;1733264;81;21039;-65
2021/12/29 02:06:30;;;;;;;16.00;7.67;;;;;;;2.57;34.14;98766.41;1756334;81;20971;-67
2021/12/29 02:08:57;;;;;;;13.87;8.20;;;;;;;2.60;34.09;98764.34;1732636;82;20951;-69
2021/12/29 02:11:29;;;;;;;11.00;7.53;;;;;;;2.72;33.91;98755.83;1738884;82;20927;-66
2021/12/29 02:13:52;;;;;;;11.27;7.37;;;;;;;2.74;33.87;98756.55;1735386;82;21168;-65
2021/12/29 02:16:18;;;;;;;13.00;7.67;;;;;;;2.78;33.87;98752.66;1718214;82;21453;-65
2021/12/29 02:18:57;;;;;;;15.83;8.33;;;;;;;2.73;33.88;98752.25;1756082;81;20992;-65
2021/12/29 02:21:25;;;;;;;11.53;6.97;;;;;;;2.68;33.96;98751.36;1736033;81;20935;-66
2021/12/29 02:24:18;;;;;;;11.60;7.40;;;;;;;2.61;34.11;98744.17;1762410;80;20837;-67
2021/12/29 02:26:22;;;;;;;13.10;8.10;;;;;;;2.68;34.06;98749.21;1747460;81;21139;-67
2021/12/29 02:28:48;;;;;;;11.43;8.17;;;;;;;2.73;33.98;98742.58;1750337;81;21085;-68
2021/12/29 02:31:15;;;;;;;14.80;8.00;;;;;;;2.71;34.03;98741.06;1757059;81;20885;-68
2021/12/29 02:33:42;;;;;;;12.83;7.63;;;;;;;2.71;34.02;98740.55;1694965;82;21533;-66
2021/12/29 02:36:08;;;;;;;13.47;7.67;;;;;;;2.80;33.89;98736.27;1743409;81;21279;-70
2021/12/29 02:38:42;;;;;;;10.90;6.80;;;;;;;2.82;33.89;98738.27;1758855;80;21004;-66
2021/12/29 02:41:06;;;;;;;15.17;7.50;;;;;;;2.87;33.87;98741.30;1742925;80;21460;-66
2021/12/29 02:43:37;;;;;;;12.03;7.30;;;;;;;2.92;33.82;98743.86;1769185;80;21529;-69
2021/12/29 02:46:01;;;;;;;14.53;7.20;;;;;;;2.98;33.79;98743.79;1770005;79;20993;-66
2021/12/29 02:48:32;;;;;;;10.03;6.37;;;;;;;2.95;33.89;98742.75;1772727;80;20994;-66
2021/12/29 02:50:59;;;;;;;12.87;8.03;;;;;;;2.97;33.84;98737.70;1766455;80;21144;-66
2021/12/29 02:53:26;;;;;;;14.03;8.30;;;;;;;2.92;33.93;98746.48;1754699;80;20855;-67
2021/12/29 02:55:53;;;;;;;12.03;7.97;;;;;;;2.94;33.92;98746.37;1767458;79;21019;-67
2021/12/29 02:58:21;;;;;;;11.33;7.43;;;;;;;3.02;33.78;98741.24;1736991;81;21476;-69
2021/12/29 03:00:47;;;;;;;17.13;8.33;;;;;;;2.99;33.74;98741.52;1763052;80;21031;-68
2021/12/29 03:03:18;;;;;;;14.57;8.60;;;;;;;2.97;33.70;98746.89;1763757;80;21143;-68
2021/12/29 03:05:44;;;;;;;12.50;7.67;;;;;;;2.97;33.66;98735.58;1769452;80;20931;-66
2021/12/29 03:08:12;;;;;;;13.77;7.40;;;;;;;2.98;33.55;98740.68;1777304;80;20970;-68
2021/12/29 03:10:39;;;;;;;11.30;7.83;;;;;;;2.96;33.59;98730.80;1764317;79;21519;-67
2021/12/29 03:13:07;;;;;;;12.97;7.40;;;;;;;2.95;33.60;98738.81;1769482;80;20939;-64
2021/12/29 03:15:36;;;;;;;10.10;7.23;;;;;;;2.93;33.57;98738.13;1770648;80;20879;-67
2021/12/29 03:18:04;;;;;;;11.67;7.30;;;;;;;2.87;33.59;98729.00;1766250;80;20974;-68
2021/12/29 03:20:30;;;;;;;10.10;6.40;;;;;;;2.78;33.75;98721.98;1767034;80;20966;-66
2021/12/29 03:22:57;;;;;;;14.87;7.83;;;;;;;2.79;33.70;98731.50;1764087;80;21445;-67
2021/12/29 03:25:26;;;;;;;10.97;7.40;;;;;;;2.87;33.62;98714.55;1768273;79;21497;-67
2021/12/29 03:27:58;;;;;;;10.90;6.73;;;;;;;2.85;33.59;98719.13;1773134;80;21985;-68
2021/12/29 03:30:21;;;;;;;12.47;7.33;;;;;;;2.92;33.53;98711.53;1760811;80;20943;-69
2021/12/29 03:33:02;;;;;;;12.33;7.83;;;;;;;2.88;33.54;98712.77;1773934;80;20925;-67
2021/12/29 03:35:20;;;;;;;13.17;8.33;;;;;;;2.83;33.66;98717.12;1766550;80;20991;-67
2021/12/29 03:37:46;;;;;;;11.20;7.40;;;;;;;2.82;33.69;98723.82;1773825;80;21649;-67
2021/12/29 03:40:13;;;;;;;13.47;7.80;;;;;;;2.86;33.70;98727.84;1780550;79;21144;-69
2021/12/29 03:42:39;;;;;;;11.50;7.13;;;;;;;2.86;33.71;98727.84;1808018;79;21575;-66
2021/12/29 03:45:07;;;;;;;10.30;7.10;;;;;;;2.91;33.63;98720.37;1795737;78;20990;-67
2021/12/29 03:47:34;;;;;;;13.13;7.60;;;;;;;2.96;33.63;98724.23;1794939;79;20943;-66
2021/12/29 03:50:01;;;;;;;12.07;7.10;;;;;;;3.01;33.61;98722.02;1803503;78;20891;-68
2021/12/29 03:52:27;;;;;;;15.93;8.23;;;;;;;3.03;33.64;98719.23;1805322;78;21144;-68
2021/12/29 03:54:53;;;;;;;12.97;7.47;;;;;;;3.05;33.76;98721.26;1804738;79;21531;-68
2021/12/29 03:57:20;;;;;;;13.33;7.80;;;;;;;3.08;33.85;98718.31;1802950;78;20994;-69
2021/12/29 03:59:46;;;;;;;13.30;8.47;;;;;;;3.03;34.08;98719.23;1799024;78;21062;-67
2021/12/29 04:02:13;;;;;;;13.30;8.23;;;;;;;3.11;34.10;98722.81;1809271;78;21489;-65
2021/12/29 04:04:39;;;;;;;13.03;7.80;;;;;;;3.07;34.25;98716.68;1803029;79;21144;-67
2021/12/29 04:07:06;;;;;;;11.50;7.90;;;;;;;3.13;34.32;98723.98;1790186;78;20877;-66
2021/12/29 04:09:32;;;;;;;11.93;8.57;;;;;;;3.16;34.30;98714.98;1784505;78;21445;-67
2021/12/29 04:11:59;;;;;;;14.07;8.30;;;;;;;3.20;34.31;98711.95;1787297;79;21054;-66
2021/12/29 04:14:26;;;;;;;12.40;8.20;;;;;;;3.27;34.24;98711.71;1805809;78;20906;-66
2021/12/29 04:16:54;;;;;;;10.43;7.17;;;;;;;3.25;34.32;98704.46;1804268;78;21128;-67
2021/12/29 04:19:40;;;;;;;13.67;8.37;;;;;;;3.26;34.43;98692.16;1779206;78;20977;-68
2021/12/29 04:21:58;;;;;;;12.57;7.07;;;;;;;3.28;34.46;98691.52;1788933;79;21603;-67
2021/12/29 04:24:25;;;;;;;13.90;7.47;;;;;;;3.35;34.32;98689.96;1798221;78;20888;-65
2021/12/29 04:26:51;;;;;;;11.47;7.33;;;;;;;3.32;34.25;98684.98;1802334;78;20930;-65
2021/12/29 04:29:18;;;;;;;9.87;7.73;;;;;;;3.35;34.24;98679.45;1790041;78;22189;-64
2021/12/29 04:31:45;;;;;;;12.37;7.67;;;;;;;3.32;34.31;98681.87;1796700;78;20992;-64
2021/12/29 04:34:11;;;;;;;10.50;7.20;;;;;;;3.31;34.55;98679.41;1798983;79;21079;-65
2021/12/29 04:36:38;;;;;;;14.00;8.00;;;;;;;3.27;34.84;98687.22;1808365;79;21424;-68
2021/12/29 04:39:05;;;;;;;12.23;7.40;;;;;;;3.31;34.91;98678.89;1799665;78;20946;-68
2021/12/29 04:41:31;;;;;;;12.13;7.17;;;;;;;3.41;34.87;98680.19;1758842;80;21128;-67
2021/12/29 04:43:58;;;;;;;15.43;8.87;;;;;;;3.40;35.00;98676.73;1759512;81;20970;-65
2021/12/29 04:46:35;;;;;;;16.53;8.80;;;;;;;3.47;35.02;98680.43;1719026;81;20924;-68
2021/12/29 04:48:59;;;;;;;12.60;7.43;;;;;;;3.56;34.93;98690.57;1762687;81;20936;-66
2021/12/29 04:51:32;;;;;;;13.30;8.30;;;;;;;3.54;35.07;98679.38;1715584;82;21061;-68
2021/12/29 04:53:53;;;;;;;13.30;7.37;;;;;;;3.57;35.14;98688.30;1750674;80;21317;-68
2021/12/29 04:56:21;;;;;;;10.63;7.60;;;;;;;3.45;35.48;98677.60;1755269;81;20943;-68
2021/12/29 04:58:47;;;;;;;12.80;7.60;;;;;;;3.39;35.72;98682.14;1758097;81;21051;-68
2021/12/29 05:01:14;;;;;;;12.63;8.13;;;;;;;3.46;35.70;98671.38;1750745;81;20913;-66
2021/12/29 05:03:44;;;;;;;10.53;7.70;;;;;;;3.62;35.53;98678.97;1765421;80;20915;-68
2021/12/29 05:08:39;;;;;;;10.40;7.87;;;;;;;3.72;35.55;98665.79;1749938;81;21076;-68
2021/12/29 05:11:08;;;;;;;9.73;6.87;;;;;;;3.63;35.83;98677.17;1723333;82;20898;-68
2021/12/29 05:13:38;;;;;;;10.80;6.90;;;;;;;3.63;35.97;98671.43;1718656;82;20919;-68
2021/12/29 05:16:04;;;;;;;9.63;6.77;;;;;;;3.57;36.17;98691.73;1745416;81;21506;-68
2021/12/29 05:18:32;;;;;;;12.97;7.67;;;;;;;3.66;36.22;98684.78;1728905;80;21158;-68
2021/12/29 05:21:01;;;;;;;9.77;7.27;;;;;;;3.79;36.15;98676.54;1749574;81;20982;-68
2021/12/29 05:23:27;;;;;;;9.73;6.57;;;;;;;3.72;36.50;98681.58;1745196;81;21010;-65
2021/12/29 05:25:54;;;;;;;13.80;7.00;;;;;;;3.76;36.55;98665.82;1747527;80;20908;-69
2021/12/29 05:28:24;;;;;;;9.00;5.63;;;;;;;3.68;36.82;98675.77;1750106;81;21070;-65
2021/12/29 05:30:51;;;;;;;11.90;7.33;;;;;;;3.72;36.79;98665.79;1722830;80;22123;-67
2021/12/29 05:33:18;;;;;;;11.03;6.90;;;;;;;3.94;36.55;98652.20;1739481;80;20996;-67
2021/12/29 05:35:44;;;;;;;10.97;7.17;;;;;;;3.95;36.55;98662.25;1724360;82;20919;-69
2021/12/29 05:38:11;;;;;;;10.03;6.40;;;;;;;4.04;36.48;98654.80;1764830;81;20939;-69
2021/12/29 05:40:40;;;;;;;8.23;6.27;;;;;;;4.02;36.52;98666.77;1748667;80;20911;-69
2021/12/29 05:43:11;;;;;;;12.23;6.50;;;;;;;4.05;36.43;98670.42;1778817;78;21086;-66
2021/12/29 05:45:42;;;;;;;9.33;6.00;;;;;;;4.28;36.25;98663.75;1777047;78;21498;-68
2021/12/29 05:48:08;;;;;;;8.93;5.87;;;;;;;4.38;36.09;98685.56;1774352;78;20932;-68
2021/12/29 05:50:38;;;;;;;8.07;5.77;;;;;;;4.50;35.91;98681.39;1780354;78;20865;-68
2021/12/29 05:53:08;;;;;;;11.50;6.40;;;;;;;4.25;36.86;98686.91;1773971;78;20870;-67
2021/12/29 05:55:35;;;;;;;9.77;6.63;;;;;;;4.12;36.40;98690.42;1770850;78;21110;-67
2021/12/29 05:58:05;;;;;;;10.47;6.67;;;;;;;4.01;36.78;98677.46;1776054;78;20987;-68
2021/12/29 06:00:38;;;;;;;9.87;6.00;;;;;;;4.01;36.75;98688.83;1776473;78;20923;-67
2021/12/29 06:03:10;;;;;;;10.30;6.23;;;;;;;4.15;36.59;98670.35;1779160;78;21024;-64
2021/12/29 06:05:38;;;;;;;10.20;6.47;;;;;;;4.30;36.46;98676.78;1748664;78;21039;-68
2021/12/29 06:08:06;;;;;;;8.93;5.80;;;;;;;4.23;36.78;98677.85;1786496;78;22936;-67
2021/12/29 06:10:32;;;;;;;9.45;6.17;;;;;;;4.30;36.61;98672.31;1780043;78;21486;-59
2021/12/29 06:12:59;;;;;;;9.17;6.27;;;;;;;4.27;36.47;98674.44;1740131;82;20926;-66
2021/12/29 06:15:26;;;;;;;10.17;6.90;;;;;;;4.28;36.48;98672.96;1775594;78;20944;-63
2021/12/29 06:17:56;;;;;;;10.37;6.37;;;;;;;4.32;36.51;98670.87;1771954;78;21009;-65
2021/12/29 06:20:27;;;;;;;8.60;6.50;;;;;;;4.21;36.40;98677.18;1778406;78;21075;-66
2021/12/29 06:22:58;;;;;;;10.93;6.22;;;;;;;4.34;36.35;98675.48;1776528;80;21415;-67
2021/12/29 06:25:29;;;;;;;10.53;6.43;;;;;;;4.43;36.30;98668.02;1776528;78;21039;-68
2021/12/29 06:27:54;;;;;;;10.70;7.27;;;;;;;4.34;36.36;98675.48;1771486;78;21530;-65
2021/12/29 06:30:20;;;;;;;11.40;6.30;;;;;;;4.35;36.41;98674.01;1773059;78;20978;-67
2021/12/29 06:32:50;;;;;;;9.17;6.50;;;;;;;4.21;36.53;98692.98;1778733;80;21185;-67
2021/12/29 06:35:21;;;;;;;8.53;6.10;;;;;;;4.27;36.54;98695.50;1779531;78;20944;-64
2021/12/29 06:37:52;;;;;;;9.70;6.33;;;;;;;4.37;36.22;98675.19;1780928;78;20972;-65
2021/12/29 06:40:23;;;;;;;10.33;6.57;;;;;;;4.28;36.36;98690.56;1767790;79;20997;-67
2021/12/29 06:42:50;;;;;;;10.47;6.30;;;;;;;4.14;36.52;98683.20;1757005;80;21461;-65
2021/12/29 06:45:21;;;;;;;9.43;6.60;;;;;;;4.20;36.54;98669.41;1732815;82;21963;-65
2021/12/29 06:47:52;;;;;;;10.80;7.73;;;;;;;4.21;36.58;98681.13;1747270;81;21029;-65
2021/12/29 06:50:22;;;;;;;11.05;7.85;;;;;;;4.26;36.63;98672.77;1749571;81;20915;-64
2021/12/29 06:52:53;;;;;;;10.88;6.53;;;;;;;4.53;36.43;98683.73;1745523;81;20951;-67
2021/12/29 06:55:22;;;;;;;11.37;6.60;;;;;;;4.54;36.25;98690.15;1746065;78;20970;-64
2021/12/29 06:57:53;;;;;;;9.00;6.10;;;;;;;4.43;36.19;98686.45;1792104;78;21143;-65
2021/12/29 07:00:24;;;;;;;9.75;5.90;;;;;;;4.25;36.37;98695.64;1782375;79;21486;-64
2021/12/29 07:02:51;;;;;;;11.80;6.70;;;;;;;4.36;36.24;98686.69;1782017;79;20990;-66
2021/12/29 07:05:21;;;;;;;11.30;7.40;;;;;;;4.40;52.91;98689.37;1789819;78;21580;-70
2021/12/29 07:07:54;;;;;;;11.03;6.93;;;;;;;4.54;37.08;98700.69;1801638;78;21611;-66
2021/12/29 07:10:22;;;;;;;10.30;6.80;;;;;;;4.61;36.47;98700.44;1779580;79;20973;-64
2021/12/29 07:12:49;;;;;;;9.23;6.43;;;;;;;4.80;43.60;98697.62;1791609;78;21042;-65
2021/12/29 07:15:16;;;;;;;10.60;6.90;;;;;;;4.71;36.12;98702.50;1781241;78;21047;-66
2021/12/29 07:17:43;;;;;;;10.20;6.87;;;;;;;4.70;35.95;98697.37;1785392;78;21264;-65
2021/12/29 07:20:11;;;;;;;10.37;6.80;;;;;;;4.58;36.05;98695.47;1800730;79;20974;-63
2021/12/29 07:22:37;;;;;;;11.67;7.87;;;;;;;4.58;35.98;98700.73;1792756;79;20904;-67
2021/12/29 07:25:04;;;;;;;12.10;6.87;;;;;;;4.66;35.97;98696.86;1784582;78;20916;-65
2021/12/29 07:27:31;;;;;;;12.57;7.30;;;;;;;4.64;35.90;98688.26;1778939;78;20931;-67
2021/12/29 07:29:58;;;;;;;11.90;6.80;;;;;;;4.76;35.62;98698.92;1787866;78;20997;-66
2021/12/29 07:32:26;;;;;;;10.17;6.77;;;;;;;4.87;35.39;98697.37;1791673;78;20887;-67
2021/12/29 07:34:52;;;;;;;10.90;7.53;;;;;;;4.93;35.28;98698.05;1796038;79;21134;-66
2021/12/29 07:37:18;;;;;;;13.30;8.40;;;;;;;4.94;35.26;98702.35;1793306;78;21019;-64
2021/12/29 07:39:45;;;;;;;14.10;8.45;;;;;;;5.08;35.17;98698.34;1796782;78;20931;-66
2021/12/29 07:42:11;;;;;;;10.28;7.50;;;;;;;5.17;35.15;98700.52;1796790;79;21008;-65
2021/12/29 07:44:43;;;;;;;13.08;7.10;;;;;;;5.17;35.16;98700.03;1793354;79;20935;-63
2021/12/29 07:47:10;;;;;;;10.20;7.65;;;;;;;5.22;35.19;98706.98;1788122;79;20984;-65
2021/12/29 07:49:37;;;;;;;10.48;7.28;;;;;;;5.29;35.18;98692.70;1787334;79;20891;-64
2021/12/29 07:52:04;;;;;;;9.48;6.58;;;;;;;5.16;35.33;98692.29;1786951;79;20895;-66
2021/12/29 07:54:32;;;;;;;11.78;7.22;;;;;;;5.13;35.44;98693.91;1789139;79;21002;-66
2021/12/29 07:56:58;;;;;;;12.53;7.57;;;;;;;5.18;35.49;98680.60;1777583;79;21034;-66
2021/12/29 07:59:25;;;;;;;11.43;7.97;;;;;;;5.22;35.41;98675.83;1789008;79;21540;-69
2021/12/29 08:01:51;;;;;;;9.48;7.30;;;;;;;5.08;35.82;98675.93;1781223;79;20963;-66
2021/12/29 08:04:21;;;;;;;10.15;7.08;;;;;;;5.21;35.64;98678.98;1788827;79;21548;-65
2021/12/29 08:06:47;;;;;;;9.93;6.73;;;;;;;5.17;35.58;98682.89;1793562;79;20996;-68
2021/12/29 08:09:14;;;;;;;11.18;7.12;;;;;;;5.31;36.50;98681.50;1778843;79;21034;-66
2021/12/29 08:11:40;;;;;;;13.83;8.15;;;;;;;5.40;35.49;98690.61;1801488;79;21151;-65
2021/12/29 08:14:07;;;;;;;10.58;7.62;;;;;;;5.30;35.46;98681.98;1781739;79;20875;-65
2021/12/29 08:16:33;;;;;;;9.63;7.40;;;;;;;5.58;35.15;98682.61;1744773;81;21459;-65
2021/12/29 08:19:00;;;;;;;12.88;8.20;;;;;;;5.93;34.80;98677.68;1755779;81;20955;-67
2021/12/29 08:21:27;;;;;;;11.03;7.05;;;;;;;6.12;34.60;98676.09;1735466;80;21077;-66
2021/12/29 08:23:53;;;;;;;14.73;9.00;;;;;;;6.10;34.27;98674.11;1762652;81;21141;-64
2021/12/29 08:26:20;;;;;;;13.13;8.23;;;;;;;5.99;34.26;98676.56;1758700;80;20947;-68
2021/12/29 08:28:46;;;;;;;10.45;6.53;;;;;;;5.96;34.34;98674.23;1737741;81;21073;-65
2021/12/29 08:31:13;;;;;;;9.50;6.45;;;;;;;5.61;34.85;98688.90;1762594;79;20996;-65
2021/12/29 08:33:40;;;;;;;11.57;7.97;;;;;;;5.45;35.08;98676.94;1791596;79;21522;-65
2021/12/29 08:36:07;;;;;;;11.57;8.13;;;;;;;5.50;35.03;98676.01;1752824;80;21137;-65
2021/12/29 08:38:34;;;;;;;14.38;8.23;;;;;;;5.43;35.10;98669.20;1740199;80;20995;-67
2021/12/29 08:41:01;;;;;;;8.95;6.75;;;;;;;5.44;35.08;98660.80;1724241;82;21069;-66
2021/12/29 08:43:30;;;;;;;10.68;7.10;;;;;;;5.44;35.10;98670.03;1756934;80;21153;-66
2021/12/29 08:45:56;;;;;;;12.58;7.65;;;;;;;5.47;35.11;98657.84;1757895;80;20883;-64
2021/12/29 08:48:23;;;;;;;9.70;7.33;;;;;;;5.50;35.09;98666.25;1735659;81;21151;-64
2021/12/29 08:50:50;;;;;;;11.80;7.22;;;;;;;5.69;34.88;98655.12;1732366;82;20974;-65
2021/12/29 08:53:18;;;;;;;11.90;7.83;;;;;;;5.93;34.70;98653.44;1731886;82;21657;-64
2021/12/29 08:55:51;;;;;;;12.00;7.37;;;;;;;6.01;34.62;98657.91;1732728;82;21086;-64
2021/12/29 08:58:16;;;;;;;11.60;7.70;;;;;;;6.00;34.53;98661.03;1724650;82;20953;-65
2021/12/29 09:00:44;;;;;;;11.60;8.15;;;;;;;6.12;34.58;98654.48;1737607;82;22348;-64
2021/12/29 09:03:11;;;;;;;10.85;7.30;;;;;;;6.15;34.51;98650.17;1730422;82;20979;-63
2021/12/29 09:05:38;;;;;;;11.85;7.72;;;;;;;6.15;36.80;98654.13;1737846;82;20864;-66
2021/12/29 09:08:05;;;;;;;10.45;7.08;;;;;;;6.04;34.96;98636.47;1757899;81;20986;-66
2021/12/29 09:10:32;;;;;;;8.55;6.20;;;;;;;5.96;34.67;98637.27;1761635;80;20995;-63
2021/12/29 09:12:59;;;;;;;12.70;8.18;;;;;;;5.81;34.65;98632.75;1761015;81;21856;-67
2021/12/29 09:15:30;;;;;;;9.95;6.97;;;;;;;5.63;34.83;98633.66;1750123;81;20844;-68
2021/12/29 09:18:00;;;;;;;10.30;6.92;;;;;;;5.58;34.88;98639.08;1741806;81;21021;-62
2021/12/29 09:20:30;;;;;;;10.58;6.12;;;;;;;5.56;34.97;98641.05;1752285;81;20967;-64
2021/12/29 09:23:07;;;;;;;10.43;6.80;;;;;;;5.54;34.95;98629.35;1741509;81;20971;-64
2021/12/29 09:25:35;;;;;;;9.15;6.65;;;;;;;5.76;34.75;98625.28;1748473;81;21725;-65
2021/12/29 09:28:03;;;;;;;9.25;6.70;;;;;;;5.97;34.44;98638.91;1749730;81;20899;-65
2021/12/29 09:30:32;;;;;;;11.22;7.78;;;;;;;6.05;35.53;98640.25;1747657;81;21505;-67
2021/12/29 09:33:02;;;;;;;10.18;7.53;;;;;;;6.13;34.72;98642.91;1750239;81;20950;-65
2021/12/29 09:35:30;;;;;;;9.03;6.33;;;;;;;6.07;34.68;98643.58;1748298;81;21580;-67
2021/12/29 09:38:00;;;;;;;8.65;6.42;;;;;;;6.27;34.59;98628.73;1752614;81;22041;-67
2021/12/29 09:40:26;;;;;;;9.73;6.92;;;;;;;6.16;34.40;98631.20;1744622;81;20895;-67
2021/12/29 09:42:53;;;;;;;8.80;6.85;;;;;;;6.04;34.39;98643.06;1749642;81;21533;-65
2021/12/29 09:45:20;;;;;;;9.05;6.83;;;;;;;6.08;34.29;98635.14;1741989;81;21031;-65
2021/12/29 09:47:47;;;;;;;10.03;7.20;;;;;;;6.06;34.29;98637.13;1740422;81;21045;-64
2021/12/29 09:50:15;;;;;;;10.35;7.65;;;;;;;6.20;34.11;98635.18;1745918;81;21980;-65
2021/12/29 09:52:42;;;;;;;10.43;7.40;;;;;;;6.32;33.88;98644.43;1744717;81;20990;-66
2021/12/29 09:55:15;;;;;;;10.85;7.08;;;;;;;6.35;33.78;98640.63;1743433;81;20967;-65
2021/12/29 09:57:46;;;;;;;10.03;6.92;;;;;;;6.42;33.73;98643.77;1742618;81;20986;-67
2021/12/29 10:00:24;;;;;;;8.63;6.25;;;;;;;6.56;33.73;98647.09;1742640;81;21572;-65
2021/12/29 10:02:52;;;;;;;11.57;7.67;;;;;;;6.72;33.67;98652.87;1742399;80;21141;-64
2021/12/29 10:05:18;;;;;;;9.08;6.85;;;;;;;6.88;33.60;98648.08;1791979;79;21449;-65
2021/12/29 10:07:47;;;;;;;10.45;7.92;;;;;;;6.98;33.76;98634.18;1791903;78;21030;-66
2021/12/29 10:10:18;;;;;;;10.88;6.75;;;;;;;7.09;33.56;98630.67;1732830;78;20959;-63
2021/12/29 10:12:45;;;;;;;11.15;8.05;;;;;;;7.04;33.30;98627.70;1789711;78;21094;-64
2021/12/29 10:15:12;;;;;;;8.78;6.67;;;;;;;11.93;28.18;98612.25;1785645;79;21308;-65
2021/12/29 10:17:38;;;;;;;10.15;6.67;;;;;;;12.19;26.38;98610.50;1789933;79;20971;-64
2021/12/29 10:20:09;;;;;;;11.53;7.72;;;;;;;12.02;26.33;98615.87;1787560;79;20915;-63
2021/12/29 10:22:39;;;;;;;9.30;7.58;;;;;;;11.36;26.78;98620.55;1789394;78;21426;-63
2021/12/29 10:25:14;;;;;;;10.00;7.47;;;;;;;11.34;26.80;98618.07;1794019;79;21650;-64
2021/12/29 10:27:42;;;;;;;10.55;7.22;;;;;;;11.36;26.74;98616.06;1788626;78;21437;-64
2021/12/29 10:30:26;;;;;;;12.60;7.60;;;;;;;11.53;26.43;98616.04;1786382;78;20963;-63
2021/12/29 10:32:56;;;;;;;9.18;6.50;;;;;;;11.16;26.83;98625.23;1789321;78;20939;-65
2021/12/29 10:35:27;;;;;;;8.53;6.97;;;;;;;10.96;26.89;98632.26;1783616;78;20899;-66
2021/12/29 10:37:55;;;;;;;12.88;7.05;;;;;;;10.87;26.74;98624.09;1792383;79;21510;-67
2021/12/29 10:40:30;;;;;;;10.13;7.17;;;;;;;10.89;26.77;98626.07;1784758;79;21160;-67
2021/12/29 10:42:59;;;;;;;11.48;7.92;;;;;;;10.81;26.74;98618.73;1787429;78;20871;-65
2021/12/29 10:45:35;;;;;;;9.78;6.85;;;;;;;10.26;27.50;98616.78;1794554;79;21407;-66
2021/12/29 10:48:01;;;;;;;;;;;;;;;10.05;27.71;98618.05;1797729;79;20943;-65
2021/12/29 10:50:28;;;;;;;9.00;6.67;;;;;;;9.96;27.90;98613.34;1792502;79;20171;-67
2021/12/29 10:52:57;;;;;;;10.35;6.90;;;;;;;9.81;28.03;98614.72;1787703;79;21146;-65
2021/12/29 10:55:35;;;;;;;10.50;6.42;;;;;;;9.94;27.94;98614.04;1786733;79;20868;-59
2021/12/29 10:58:08;;;;;;;9.68;7.47;;;;;;;9.97;27.92;98628.78;1798709;79;20927;-61
2021/12/29 11:00:36;;;;;;;9.50;7.33;;;;;;;9.82;28.08;98624.84;1794538;79;20915;-61
2021/12/29 11:03:19;;;;;;;10.30;7.30;;;;;;;9.86;28.11;98612.82;1791437;79;21513;-62
2021/12/29 11:05:48;;;;;;;13.32;8.55;;;;;;;9.93;28.14;98618.52;1803408;79;21799;-63
2021/12/29 11:08:17;;;;;;;10.48;7.25;;;;;;;9.75;28.39;98619.96;1792856;79;20978;-61
2021/12/29 11:10:45;;;;;;;10.28;6.37;;;;;;;9.72;28.45;98619.00;1788087;79;20844;-61
2021/12/29 11:13:12;;;;;;;10.18;6.47;;;;;;;9.74;28.42;98624.94;1748567;81;20983;-66
2021/12/29 11:15:41;;;;;;;8.75;7.05;;;;;;;9.80;28.29;98617.57;1735368;82;20947;-66
2021/12/29 11:18:11;;;;;;;8.33;6.55;;;;;;;9.67;28.36;98622.72;1756844;81;21130;-67
2021/12/29 11:20:39;;;;;;;9.03;7.37;;;;;;;9.79;28.19;98608.77;1753634;81;20923;-65
2021/12/29 11:23:15;;;;;;;12.05;8.33;;;;;;;10.01;28.04;98608.82;1753523;81;20917;-66
2021/12/29 11:25:44;;;;;;;9.33;7.12;;;;;;;10.18;27.92;98620.38;1735562;82;20979;-66
2021/12/29 11:28:30;;;;;;;10.98;6.72;;;;;;;10.13;27.90;98612.66;1752370;81;20939;-66
2021/12/29 11:30:59;;;;;;;9.75;7.60;;;;;;;9.87;28.14;98611.33;1724765;82;21175;-67
2021/12/29 11:33:31;;;;;;;12.58;7.97;;;;;;;9.91;28.22;98615.23;1753340;81;20951;-63
2021/12/29 11:35:59;;;;;;;9.10;7.45;;;;;;;9.97;28.14;98620.81;1752562;81;21462;-64
2021/12/29 11:38:27;;;;;;;12.43;8.03;;;;;;;10.09;28.08;98618.80;1758173;81;21458;-63
2021/12/29 11:41:00;;;;;;;11.03;8.25;;;;;;;9.93;28.38;98627.03;1757702;80;21485;-63
2021/12/29 11:43:27;;;;;;;8.40;6.47;;;;;;;9.94;28.21;98623.34;1716575;81;21140;-64
2021/12/29 11:45:56;;;;;;;9.13;7.33;;;;;;;10.09;28.02;98625.98;1785375;78;20923;-66